Forest Home, Alabama
Current Conditions -  °F | °C
As of 2:56 AM on Monday 20 Oct 2014 (Local Time) from KPRN Reporting Station
Clear Clear  
Wind Chill: 47°   Ceiling: Unl
Heat Index: 47°   Visibility: 10mi
Dew Point: 44°   Wind: 0mph
Humidity: 90%   Direction: NA
Pressure: 30.06"   Gusts: NA
Location:  31.86°N, 86.84°W
Report Text: KPRN 200756Z AUTO 00000KT 10SM CLR 08/07 A3006 RMK AO2 SLP176 T00830067
Loading
Personal Weather Stations






























Interactive Weather Map New forecast layout! Learn more

10-Day Weather Forecast

Advertisements
Track Severe Weather on mobile